createdAt,value
2018-01-24T00:01:38.839Z,101302.29
2018-01-24T00:04:05.054Z,101296.59
2018-01-24T00:06:31.485Z,101285.67
2018-01-24T00:08:59.842Z,101282.17
2018-01-24T00:11:26.280Z,101284.27
2018-01-24T00:13:52.547Z,101286.80
2018-01-24T00:16:18.858Z,101294.59
2018-01-24T00:18:45.148Z,101291.05
2018-01-24T00:21:11.405Z,101282.32
2018-01-24T00:23:37.672Z,101286.78
2018-01-24T00:26:03.856Z,101278.50
2018-01-24T00:28:30.318Z,101281.17
2018-01-24T00:30:56.606Z,101282.46
2018-01-24T00:33:22.807Z,101278.55
2018-01-24T00:35:49.016Z,101285.55
2018-01-24T00:38:15.365Z,101281.63
2018-01-24T00:40:41.546Z,101283.40
2018-01-24T00:43:07.804Z,101273.32
2018-01-24T00:45:34.065Z,101269.39
2018-01-24T00:48:00.262Z,101272.46
2018-01-24T00:50:26.449Z,101262.41
2018-01-24T00:52:52.709Z,101264.57
2018-01-24T00:55:18.922Z,101265.02
2018-01-24T00:57:45.169Z,101262.45
2018-01-24T01:00:11.694Z,101269.94
2018-01-24T01:02:37.935Z,101269.55
2018-01-24T01:05:04.153Z,101271.68
2018-01-24T01:07:30.416Z,101273.04
2018-01-24T01:09:56.660Z,101282.62
2018-01-24T01:12:22.917Z,101283.48
2018-01-24T01:14:49.460Z,101289.19
2018-01-24T01:17:15.698Z,101287.41
2018-01-24T01:19:41.937Z,101284.77
2018-01-24T01:22:08.226Z,101283.47
2018-01-24T01:24:34.454Z,101283.48
2018-01-24T01:27:00.661Z,101281.76
2018-01-24T01:29:26.916Z,101278.72
2018-01-24T01:31:53.142Z,101283.55
2018-01-24T01:34:19.779Z,101285.71
2018-01-24T01:36:46.006Z,101283.53
2018-01-24T01:39:12.250Z,101302.31
2018-01-24T01:41:38.462Z,101313.67
2018-01-24T01:44:04.711Z,101316.27
2018-01-24T01:46:31.019Z,101308.82
2018-01-24T01:48:57.282Z,101303.48
2018-01-24T01:51:23.591Z,101299.13
2018-01-24T01:53:49.827Z,101306.08
2018-01-24T01:56:16.071Z,101305.67
2018-01-24T01:58:42.286Z,101311.36
2018-01-24T02:01:08.548Z,101309.17
2018-01-24T02:03:34.796Z,101308.73
2018-01-24T02:06:01.011Z,101306.55
2018-01-24T02:08:27.269Z,101303.09
2018-01-24T02:10:53.812Z,101292.13
2018-01-24T02:13:20.057Z,101291.70
2018-01-24T02:15:46.333Z,101306.56
2018-01-24T02:18:13.122Z,101314.04
2018-01-24T02:20:39.317Z,101307.53
2018-01-24T02:23:05.557Z,101304.91
2018-01-24T02:25:31.861Z,101310.55
2018-01-24T02:27:58.058Z,101296.58
2018-01-24T02:30:24.307Z,101311.86
2018-01-24T02:32:50.554Z,101305.76
2018-01-24T02:35:17.052Z,101297.83
2018-01-24T02:37:43.326Z,101297.37
2018-01-24T02:40:09.530Z,101298.23
2018-01-24T02:42:35.750Z,101300.91
2018-01-24T02:45:02.327Z,101290.00
2018-01-24T02:47:28.803Z,101285.19
2018-01-24T02:49:55.349Z,101288.20
2018-01-24T02:52:21.596Z,101289.98
2018-01-24T02:54:47.800Z,101293.44
2018-01-24T02:57:14.327Z,101299.55
2018-01-24T02:59:40.605Z,101306.11
2018-01-24T03:02:06.786Z,101302.98
2018-01-24T03:04:32.978Z,101300.77
2018-01-24T03:06:59.244Z,101304.31
2018-01-24T03:09:25.456Z,101299.48
2018-01-24T03:11:51.640Z,101296.86
2018-01-24T03:14:18.238Z,101298.17
2018-01-24T03:16:44.446Z,101304.30
2018-01-24T03:19:10.914Z,101304.30
2018-01-24T03:21:37.501Z,101303.42
2018-01-24T03:24:03.717Z,101308.64
2018-01-24T03:26:29.958Z,101312.58
2018-01-24T03:28:56.522Z,101327.91
2018-01-24T03:31:22.750Z,101332.70
2018-01-24T03:33:48.960Z,101332.22
2018-01-24T03:36:15.495Z,101331.77
2018-01-24T03:38:41.729Z,101337.48
2018-01-24T03:41:07.950Z,101325.67
2018-01-24T03:43:34.218Z,101326.57
2018-01-24T03:46:00.443Z,101330.06
2018-01-24T03:48:26.649Z,101322.19
2018-01-24T03:50:53.501Z,101341.80
2018-01-24T03:53:19.738Z,101351.39
2018-01-24T03:55:45.947Z,101357.53
2018-01-24T03:58:12.201Z,101359.72
2018-01-24T04:00:38.399Z,101359.31
2018-01-24T04:03:04.626Z,101357.55
2018-01-24T04:05:30.897Z,101355.83
2018-01-24T04:07:57.207Z,101361.93
2018-01-24T04:10:23.434Z,101349.70
2018-01-24T04:12:49.970Z,101352.31
2018-01-24T04:15:16.249Z,101349.67
2018-01-24T04:17:42.462Z,101338.72
2018-01-24T04:20:08.774Z,101344.38
2018-01-24T04:22:35.020Z,101343.06
2018-01-24T04:25:01.214Z,101343.03
2018-01-24T04:27:27.744Z,101342.16
2018-01-24T04:29:54.586Z,101340.44
2018-01-24T04:32:20.837Z,101330.80
2018-01-24T04:34:47.066Z,101329.92
2018-01-24T04:37:13.326Z,101326.88
2018-01-24T04:39:39.546Z,101328.66
2018-01-24T04:42:05.762Z,101326.03
2018-01-24T04:44:32.055Z,101330.41
2018-01-24T04:46:58.249Z,101328.20
2018-01-24T04:49:24.673Z,101334.77
2018-01-24T04:51:51.668Z,101331.70
2018-01-24T04:54:17.917Z,101331.27
2018-01-24T04:56:44.152Z,101340.85
2018-01-24T04:59:10.448Z,101338.25
2018-01-24T05:01:36.709Z,101326.42
2018-01-24T05:04:03.011Z,101328.56
2018-01-24T05:06:29.641Z,101328.98
2018-01-24T05:08:56.191Z,101336.39
2018-01-24T05:11:22.413Z,101329.83
2018-01-24T05:13:49.049Z,101321.98
2018-01-24T05:16:15.306Z,101321.58
2018-01-24T05:18:41.814Z,101332.56
2018-01-24T05:21:09.187Z,101333.92
2018-01-24T05:23:35.706Z,101323.86
2018-01-24T05:26:02.237Z,101329.98
2018-01-24T05:28:28.483Z,101332.17
2018-01-24T05:30:54.733Z,101329.55
2018-01-24T05:33:21.059Z,101323.84
2018-01-24T05:35:47.262Z,101326.38
2018-01-24T05:38:13.478Z,101324.17
2018-01-24T05:40:39.729Z,101321.13
2018-01-24T05:43:05.947Z,101322.39
2018-01-24T05:45:32.206Z,101307.44
2018-01-24T05:47:58.826Z,101301.29
2018-01-24T05:50:25.072Z,101305.27
2018-01-24T05:52:51.311Z,101295.25
2018-01-24T05:55:17.565Z,101297.51
2018-01-24T05:57:43.788Z,101291.92
2018-01-24T06:00:10.130Z,101291.06
2018-01-24T06:02:36.393Z,101276.22
2018-01-24T06:05:02.623Z,101281.95
2018-01-24T06:07:28.832Z,101278.91
2018-01-24T06:09:55.118Z,101285.91
2018-01-24T06:12:21.356Z,101284.16
2018-01-24T06:14:47.571Z,101278.50
2018-01-24T06:17:13.821Z,101275.05
2018-01-24T06:19:40.011Z,101277.23
2018-01-24T06:22:06.531Z,101279.02
2018-01-24T06:24:32.779Z,101285.19
2018-01-24T06:26:59.072Z,101280.38
2018-01-24T06:29:25.348Z,101275.16
2018-01-24T06:31:51.831Z,101276.05
2018-01-24T06:34:18.373Z,101278.27
2018-01-24T06:36:44.811Z,101283.86
2018-01-24T06:39:11.124Z,101281.21
2018-01-24T06:41:37.302Z,101281.70
2018-01-24T06:44:03.521Z,101280.31
2018-01-24T06:46:30.104Z,101272.81
2018-01-24T06:48:56.311Z,101270.59
2018-01-24T06:51:22.504Z,101268.88
2018-01-24T06:53:48.803Z,101269.31
2018-01-24T06:56:15.341Z,101270.65
2018-01-24T06:58:41.553Z,101270.67
2018-01-24T07:01:07.856Z,101273.69
2018-01-24T07:03:34.181Z,101274.94
2018-01-24T07:06:00.372Z,101280.55
2018-01-24T07:08:26.896Z,101282.27
2018-01-24T07:10:53.356Z,101285.31
2018-01-24T07:13:32.343Z,101291.44
2018-01-24T07:15:58.576Z,101286.16
2018-01-24T07:18:24.869Z,101281.77
2018-01-24T07:20:51.172Z,101272.61
2018-01-24T07:23:17.458Z,101270.77
2018-01-24T07:25:43.768Z,101264.16
2018-01-24T07:28:10.009Z,101251.47
2018-01-24T07:30:36.463Z,101251.52
2018-01-24T07:33:02.687Z,101243.23
2018-01-24T07:35:28.964Z,101239.78
2018-01-24T07:37:55.522Z,101240.70
2018-01-24T07:40:21.990Z,101237.23
2018-01-24T07:42:48.193Z,101228.61
2018-01-24T07:45:14.754Z,101234.68
2018-01-24T07:47:40.956Z,101228.97
2018-01-24T07:50:07.559Z,101223.31
2018-01-24T07:52:33.792Z,101223.34
2018-01-24T07:55:00.054Z,101222.95
2018-01-24T07:57:26.587Z,101210.24
2018-01-24T07:59:52.815Z,101218.97
2018-01-24T08:02:19.060Z,101211.94
2018-01-24T08:04:45.399Z,101219.34
2018-01-24T08:07:11.936Z,101215.88
2018-01-24T08:09:38.406Z,101215.40
2018-01-24T08:12:04.700Z,101218.41
2018-01-24T08:14:30.942Z,101216.22
2018-01-24T08:16:57.173Z,101211.34
2018-01-24T08:19:23.730Z,101205.58
2018-01-24T08:21:49.989Z,101199.02
2018-01-24T08:24:16.246Z,101202.11
2018-01-24T08:26:42.491Z,101202.59
2018-01-24T08:29:08.698Z,101200.89
2018-01-24T08:31:34.957Z,101204.41
2018-01-24T08:34:01.169Z,101206.58
2018-01-24T08:36:27.483Z,101197.83
2018-01-24T08:38:54.133Z,101197.37
2018-01-24T08:41:20.867Z,101196.08
2018-01-24T08:43:47.076Z,101201.36
2018-01-24T08:46:13.296Z,101197.01
2018-01-24T08:48:39.587Z,101193.48
2018-01-24T08:51:05.844Z,101179.08
2018-01-24T08:53:32.065Z,101172.52
2018-01-24T08:55:58.325Z,101179.44
2018-01-24T08:58:24.557Z,101173.75
2018-01-24T09:00:50.824Z,101167.16
2018-01-24T09:03:17.462Z,101164.11
2018-01-24T09:05:43.677Z,101150.99
2018-01-24T09:08:09.867Z,101149.65
2018-01-24T09:10:36.117Z,101152.69
2018-01-24T09:13:02.578Z,101150.93
2018-01-24T09:15:28.883Z,101147.47
2018-01-24T09:17:55.128Z,101152.25
2018-01-24T09:20:27.322Z,101146.09
2018-01-24T09:22:53.609Z,101150.94
2018-01-24T09:25:19.900Z,101151.34
2018-01-24T09:27:46.103Z,101144.81
2018-01-24T09:30:12.436Z,101147.91
2018-01-24T09:32:38.882Z,101148.75
2018-01-24T09:35:05.125Z,101134.72
2018-01-24T09:37:31.454Z,101140.38
2018-01-24T09:39:57.639Z,101139.05
2018-01-24T09:42:23.872Z,101138.61
2018-01-24T09:44:50.147Z,101131.61
2018-01-24T09:47:16.613Z,101137.70
2018-01-24T09:49:43.059Z,101132.00
2018-01-24T09:52:09.637Z,101130.69
2018-01-24T09:54:35.869Z,101129.38
2018-01-24T09:57:02.085Z,101135.88
2018-01-24T09:59:28.615Z,101123.66
2018-01-24T10:01:55.150Z,101118.00
2018-01-24T10:04:21.365Z,101120.19
2018-01-24T10:06:47.863Z,101111.84
2018-01-24T10:09:14.393Z,101112.70
2018-01-24T10:11:40.618Z,101109.58
2018-01-24T10:14:06.840Z,101108.27
2018-01-24T10:16:33.143Z,101104.33
2018-01-24T10:18:59.358Z,101097.80
2018-01-24T10:21:25.576Z,101100.86
2018-01-24T10:23:51.856Z,101102.58
2018-01-24T10:26:18.118Z,101100.78
2018-01-24T10:28:44.360Z,101100.31
2018-01-24T10:31:10.636Z,101099.83
2018-01-24T10:33:36.854Z,101097.08
2018-01-24T10:36:03.120Z,101100.47
2018-01-24T10:38:29.657Z,101089.56
2018-01-24T10:40:55.890Z,101081.69
2018-01-24T10:43:22.144Z,101077.31
2018-01-24T10:45:48.460Z,101068.56
2018-01-24T10:48:14.701Z,101060.56
2018-01-24T10:50:40.916Z,101059.10
2018-01-24T10:53:07.189Z,101049.86
2018-01-24T10:55:33.420Z,101044.63
2018-01-24T10:57:59.699Z,101040.76
2018-01-24T11:00:26.015Z,101032.91
2018-01-24T11:02:52.245Z,101035.09
2018-01-24T11:05:18.469Z,101028.06
2018-01-24T11:07:45.048Z,101028.12
2018-01-24T11:10:11.278Z,101024.25
2018-01-24T11:12:37.532Z,101005.28
2018-01-24T11:15:04.088Z,101002.49
2018-01-24T11:17:30.338Z,101009.41
2018-01-24T11:19:56.665Z,101002.40
2018-01-24T11:22:22.933Z,101004.62
2018-01-24T11:24:49.146Z,101003.28
2018-01-24T11:27:15.435Z,101000.21
2018-01-24T11:29:41.714Z,101002.37
2018-01-24T11:32:08.326Z,100993.52
2018-01-24T11:34:34.553Z,100993.45
2018-01-24T11:37:00.783Z,100989.48
2018-01-24T11:39:27.078Z,100991.61
2018-01-24T11:41:53.310Z,100989.37
2018-01-24T11:44:19.534Z,100977.16
2018-01-24T11:46:46.127Z,100974.12
2018-01-24T11:49:12.337Z,100967.56
2018-01-24T11:51:38.524Z,100958.80
2018-01-24T11:54:05.153Z,100964.12
2018-01-24T11:56:31.505Z,100955.84
2018-01-24T11:58:57.959Z,100953.31
2018-01-24T12:01:24.313Z,100940.25
2018-01-24T12:03:50.910Z,100935.88
2018-01-24T12:06:17.131Z,100933.66
2018-01-24T12:08:43.429Z,100934.56
2018-01-24T12:11:09.677Z,100930.19
2018-01-24T12:13:35.914Z,100924.83
2018-01-24T12:16:02.134Z,100927.86
2018-01-24T12:18:28.371Z,100924.36
2018-01-24T12:20:54.922Z,100918.23
2018-01-24T12:23:21.156Z,100915.20
2018-01-24T12:25:47.394Z,100917.83
2018-01-24T12:28:13.727Z,100911.27
2018-01-24T12:30:39.921Z,100902.07
2018-01-24T12:33:06.131Z,100898.61
2018-01-24T12:35:32.421Z,100900.76
2018-01-24T12:37:58.653Z,100894.20
2018-01-24T12:40:24.847Z,100884.42
2018-01-24T12:42:51.133Z,100865.86
2018-01-24T12:45:17.446Z,100863.17
2018-01-24T12:47:43.936Z,100865.17
2018-01-24T12:50:10.191Z,100857.26
2018-01-24T12:52:36.377Z,100850.69
2018-01-24T12:55:02.587Z,100825.30
2018-01-24T12:57:28.812Z,100830.55
2018-01-24T12:59:55.064Z,100822.67
2018-01-24T13:02:21.330Z,100817.05
2018-01-24T13:04:47.520Z,100801.73
2018-01-24T13:07:13.742Z,100809.61
2018-01-24T13:09:40.360Z,100808.77
2018-01-24T13:12:06.590Z,100806.62
2018-01-24T13:14:32.801Z,100806.69
2018-01-24T13:16:59.075Z,100804.14
2018-01-24T13:19:25.285Z,100800.67
2018-01-24T13:21:51.521Z,100796.77
2018-01-24T13:24:17.770Z,100797.76
2018-01-24T13:26:43.978Z,100793.74
2018-01-24T13:29:10.227Z,100791.55
2018-01-24T13:31:36.541Z,100781.92
2018-01-24T13:34:02.788Z,100784.99
2018-01-24T13:36:29.104Z,100790.28
2018-01-24T13:38:55.350Z,100777.66
2018-01-24T13:41:21.593Z,100779.37
2018-01-24T13:43:47.935Z,100777.66
2018-01-24T13:46:14.180Z,100777.26
2018-01-24T13:48:40.425Z,100774.67
2018-01-24T13:51:06.720Z,100765.05
2018-01-24T13:53:32.934Z,100764.20
2018-01-24T13:55:59.156Z,100758.11
2018-01-24T13:58:25.686Z,100764.68
2018-01-24T14:00:51.914Z,100759.03
2018-01-24T14:03:18.149Z,100749.44
2018-01-24T14:05:44.788Z,100750.70
2018-01-24T14:08:11.367Z,100743.75
2018-01-24T14:10:37.910Z,100738.57
2018-01-24T14:13:04.509Z,100738.64
2018-01-24T14:15:31.005Z,100734.23
2018-01-24T14:17:57.220Z,100736.42
2018-01-24T14:20:23.540Z,100725.88
2018-01-24T14:22:49.768Z,100720.19
2018-01-24T14:25:16.012Z,100730.69
2018-01-24T14:27:42.310Z,100714.46
2018-01-24T14:30:08.553Z,100716.69
2018-01-24T14:32:34.813Z,100716.29
2018-01-24T14:35:01.067Z,100722.41
2018-01-24T14:37:27.269Z,100706.66
2018-01-24T14:39:53.736Z,100701.89
2018-01-24T14:42:20.049Z,100703.67
2018-01-24T14:44:46.309Z,100699.30
2018-01-24T14:47:12.533Z,100694.05
2018-01-24T14:49:38.764Z,100693.61
2018-01-24T14:52:05.057Z,100690.11
2018-01-24T14:54:31.332Z,100678.80
2018-01-24T14:56:57.572Z,100675.62
2018-01-24T14:59:23.832Z,100671.22
2018-01-24T15:01:50.066Z,100667.27
2018-01-24T15:04:16.311Z,100655.38
2018-01-24T15:06:42.581Z,100651.36
2018-01-24T15:09:15.897Z,100625.47
2018-01-24T15:11:42.189Z,100632.79
2018-01-24T15:14:08.403Z,100635.45
2018-01-24T15:16:34.616Z,100630.59
2018-01-24T15:19:00.871Z,100633.19
2018-01-24T15:21:27.112Z,100623.52
2018-01-24T15:23:53.318Z,100627.05
2018-01-24T15:26:19.624Z,100630.13
2018-01-24T15:28:45.844Z,100638.04
2018-01-24T15:31:12.345Z,100635.02
2018-01-24T15:33:38.917Z,100621.41
2018-01-24T15:36:05.137Z,100624.47
2018-01-24T15:38:31.343Z,100623.63
2018-01-24T15:40:57.977Z,100631.11
2018-01-24T15:43:24.347Z,100622.91
2018-01-24T15:45:50.601Z,100629.56
2018-01-24T15:48:16.877Z,100617.79
2018-01-24T15:50:43.084Z,100612.58
2018-01-24T15:53:09.312Z,100610.83
2018-01-24T15:55:35.849Z,100605.17
2018-01-24T15:58:02.060Z,100615.68
2018-01-24T16:00:28.549Z,100610.00
2018-01-24T16:02:55.143Z,100607.92
2018-01-24T16:05:21.732Z,100600.09
2018-01-24T16:07:48.011Z,100599.64
2018-01-24T16:10:14.657Z,100595.71
2018-01-24T16:12:41.109Z,100591.85
2018-01-24T16:15:07.324Z,100582.66
2018-01-24T16:17:33.873Z,100587.08
2018-01-24T16:20:00.557Z,100591.53
2018-01-24T16:22:26.772Z,100595.03
2018-01-24T16:24:53.060Z,100588.03
2018-01-24T16:27:19.318Z,100584.53
2018-01-24T16:29:45.828Z,100581.88
2018-01-24T16:32:12.154Z,100583.22
2018-01-24T16:34:38.423Z,100580.99
2018-01-24T16:37:04.661Z,100574.47
2018-01-24T16:39:30.909Z,100570.06
2018-01-24T16:41:57.148Z,100563.50
2018-01-24T16:44:23.716Z,100574.43
2018-01-24T16:46:49.921Z,100570.45
2018-01-24T16:49:16.138Z,100567.39
2018-01-24T16:51:42.381Z,100565.64
2018-01-24T16:54:08.584Z,100556.89
2018-01-24T16:56:35.048Z,100562.98
2018-01-24T16:59:01.249Z,100559.08
2018-01-24T17:01:27.743Z,100558.20
2018-01-24T17:03:54.019Z,100552.04
2018-01-24T17:06:20.250Z,100543.69
2018-01-24T17:08:46.714Z,100544.60
2018-01-24T17:11:13.265Z,100529.72
2018-01-24T17:13:39.486Z,100542.85
2018-01-24T17:16:05.724Z,100540.70
2018-01-24T17:18:32.254Z,100540.70
2018-01-24T17:20:58.450Z,100538.52
2018-01-24T17:23:24.688Z,100536.84
2018-01-24T17:25:51.657Z,100536.41
2018-01-24T17:28:17.876Z,100534.70
2018-01-24T17:30:44.124Z,100537.33
2018-01-24T17:33:10.648Z,100535.17
2018-01-24T17:35:36.882Z,100522.92
2018-01-24T17:38:03.161Z,100526.39
2018-01-24T17:40:29.628Z,100532.59
2018-01-24T17:42:56.176Z,100516.84
2018-01-24T17:45:22.420Z,100520.30
2018-01-24T17:47:48.618Z,100505.03
2018-01-24T17:50:14.820Z,100508.53
2018-01-24T17:52:41.465Z,100523.84
2018-01-24T17:55:08.029Z,100519.03
2018-01-24T17:57:34.565Z,100505.47
2018-01-24T18:00:01.197Z,100501.50
2018-01-24T18:02:27.425Z,100506.34
2018-01-24T18:04:53.660Z,100502.37
2018-01-24T18:07:19.913Z,100494.58
2018-01-24T18:09:46.164Z,100484.91
2018-01-24T18:12:12.377Z,100494.94
2018-01-24T18:14:38.988Z,100494.09
2018-01-24T18:17:05.301Z,100491.52
2018-01-24T18:19:31.592Z,100495.05
2018-01-24T18:21:57.854Z,100516.48
2018-01-24T18:24:24.088Z,100504.72
2018-01-24T18:26:50.319Z,100506.91
2018-01-24T18:29:17.276Z,100508.62
2018-01-24T18:31:43.579Z,100492.03
2018-01-24T18:34:09.796Z,100472.39
2018-01-24T18:36:36.105Z,100475.23
2018-01-24T18:39:02.396Z,100483.41
2018-01-24T18:41:28.589Z,100478.59
2018-01-24T18:43:54.819Z,100486.08
2018-01-24T18:46:21.053Z,100487.00
2018-01-24T18:48:47.348Z,100484.84
2018-01-24T18:51:13.554Z,100472.56
2018-01-24T18:53:39.762Z,100482.62
2018-01-24T18:56:06.012Z,100480.43
2018-01-24T18:58:32.451Z,100481.26
2018-01-24T19:00:58.890Z,100488.66
2018-01-24T19:03:25.495Z,100487.34
2018-01-24T19:05:51.729Z,100470.33
2018-01-24T19:08:17.950Z,100480.79
2018-01-24T19:10:44.208Z,100466.31
2018-01-24T19:13:10.429Z,100464.52
2018-01-24T19:15:36.630Z,100470.24
2018-01-24T19:18:02.911Z,100463.61
2018-01-24T19:20:29.179Z,100483.95
2018-01-24T19:22:55.592Z,100470.83
2018-01-24T19:25:21.791Z,100462.44
2018-01-24T19:27:48.302Z,100456.34
2018-01-24T19:30:14.582Z,100473.41
2018-01-24T19:32:40.788Z,100455.86
2018-01-24T19:35:07.000Z,100451.80
2018-01-24T19:37:33.363Z,100448.30
2018-01-24T19:39:59.735Z,100438.20
2018-01-24T19:42:25.969Z,100441.70
2018-01-24T19:44:52.260Z,100437.75
2018-01-24T19:47:19.366Z,100437.16
2018-01-24T19:49:45.559Z,100441.96
2018-01-24T19:52:11.876Z,100441.13
2018-01-24T19:54:38.166Z,100448.91
2018-01-24T19:57:04.384Z,100433.08
2018-01-24T19:59:30.628Z,100448.36
2018-01-24T20:01:56.923Z,100438.28
2018-01-24T20:04:23.165Z,100450.94
2018-01-24T20:06:49.438Z,100451.81
2018-01-24T20:09:15.916Z,100457.93
2018-01-24T20:11:42.132Z,100450.93
2018-01-24T20:14:08.409Z,100465.46
2018-01-24T20:16:34.675Z,100478.63
2018-01-24T20:19:00.983Z,100508.87
2018-01-24T20:21:27.204Z,100523.31
2018-01-24T20:23:53.402Z,100553.06
2018-01-24T20:26:19.988Z,100538.22
2018-01-24T20:28:46.189Z,100568.81
2018-01-24T20:31:12.471Z,100560.90
2018-01-24T20:33:38.876Z,100572.31
2018-01-24T20:36:05.083Z,100563.13
2018-01-24T20:38:31.294Z,100595.03
2018-01-24T20:40:57.559Z,100560.50
2018-01-24T20:43:23.784Z,100592.45
2018-01-24T20:45:50.014Z,100588.63
2018-01-24T20:48:16.261Z,100585.28
2018-01-24T20:50:42.487Z,100593.05
2018-01-24T20:53:08.778Z,100608.75
2018-01-24T20:55:35.004Z,100588.52
2018-01-24T20:58:01.604Z,100612.94
2018-01-24T21:00:28.172Z,100604.70
2018-01-24T21:02:54.403Z,100603.95
2018-01-24T21:05:20.652Z,100592.21
2018-01-24T21:07:47.145Z,100610.23
2018-01-24T21:10:13.370Z,100608.08
2018-01-24T21:12:39.587Z,100604.18
2018-01-24T21:15:05.859Z,100615.59
2018-01-24T21:17:32.149Z,100613.81
2018-01-24T21:19:58.581Z,100614.28
2018-01-24T21:22:24.814Z,100617.31
2018-01-24T21:24:51.076Z,100621.25
2018-01-24T21:27:17.343Z,100628.68
2018-01-24T21:29:58.566Z,100623.03
2018-01-24T21:32:36.758Z,100625.66
2018-01-24T21:35:15.170Z,100620.09
2018-01-24T21:37:41.384Z,100625.89
2018-01-24T21:40:07.696Z,100626.41
2018-01-24T21:42:34.340Z,100622.98
2018-01-24T21:45:00.558Z,100615.15
2018-01-24T21:47:26.783Z,100622.59
2018-01-24T21:49:53.037Z,100619.95
2018-01-24T21:52:19.254Z,100617.70
2018-01-24T21:54:45.473Z,100621.62
2018-01-24T21:57:11.695Z,100628.70
2018-01-24T21:59:37.992Z,100616.94
2018-01-24T22:02:04.285Z,100614.35
2018-01-24T22:04:30.517Z,100626.20
2018-01-24T22:06:56.768Z,100631.02
2018-01-24T22:09:23.016Z,100626.67
2018-01-24T22:11:49.225Z,100630.61
2018-01-24T22:14:15.460Z,100636.73
2018-01-24T22:16:42.201Z,100632.72
2018-01-24T22:19:08.429Z,100635.34
2018-01-24T22:21:34.686Z,100637.17
2018-01-24T22:24:01.324Z,100641.51
2018-01-24T22:26:27.836Z,100645.41
2018-01-24T22:28:54.061Z,100645.41
2018-01-24T22:31:20.402Z,100642.78
2018-01-24T22:33:46.727Z,100642.78
2018-01-24T22:36:12.957Z,100641.98
2018-01-24T22:38:39.217Z,100647.27
2018-01-24T22:41:05.469Z,100647.19
2018-01-24T22:43:31.678Z,100644.97
2018-01-24T22:45:58.326Z,100642.78
2018-01-24T22:48:24.529Z,100640.13
2018-01-24T22:50:50.757Z,100635.31
2018-01-24T22:53:16.997Z,100636.63
2018-01-24T22:55:43.273Z,100641.44
2018-01-24T22:58:09.525Z,100649.34
2018-01-24T23:00:35.792Z,100656.27
2018-01-24T23:03:02.018Z,100662.39
2018-01-24T23:05:28.609Z,100668.08
2018-01-24T23:07:54.836Z,100665.45
2018-01-24T23:10:21.037Z,100668.88
2018-01-24T23:12:47.659Z,100668.07
2018-01-24T23:15:13.861Z,100670.27
2018-01-24T23:17:40.081Z,100679.38
2018-01-24T23:20:06.424Z,100692.89
2018-01-24T23:22:32.669Z,100689.00
2018-01-24T23:24:58.873Z,100686.33
2018-01-24T23:27:25.077Z,100692.86
2018-01-24T23:29:51.316Z,100686.26
2018-01-24T23:32:17.980Z,100688.01
2018-01-24T23:34:44.298Z,100682.36
2018-01-24T23:37:10.527Z,100686.62
2018-01-24T23:39:37.499Z,100691.40
2018-01-24T23:42:03.752Z,100688.19
2018-01-24T23:44:29.958Z,100680.27
2018-01-24T23:46:56.559Z,100682.50
2018-01-24T23:49:22.777Z,100676.48
2018-01-24T23:51:49.002Z,100674.41
2018-01-24T23:54:15.269Z,100666.14
2018-01-24T23:56:41.459Z,100670.47
2018-01-24T23:59:07.751Z,100676.63
